sensor_id;sensor_type;location;lat;lon;timestamp;pressure;altitude;pressure_sealevel;temperature;humidity
64967;BME280;51710;38.732;-121.358;2023-04-04T00:00:12;101263.75;;;15.01;30.65
64967;BME280;51710;38.732;-121.358;2023-04-04T00:02:38;101264.25;;;15.04;30.15
64967;BME280;51710;38.732;-121.358;2023-04-04T00:05:06;101262.88;;;15.08;28.31
64967;BME280;51710;38.732;-121.358;2023-04-04T00:07:33;101249.81;;;15.05;29.41
64967;BME280;51710;38.732;-121.358;2023-04-04T00:09:59;101268.53;;;15.13;30.29
64967;BME280;51710;38.732;-121.358;2023-04-04T00:12:26;101263.66;;;15.17;30.02
64967;BME280;51710;38.732;-121.358;2023-04-04T00:14:52;101257.13;;;15.19;31.31
64967;BME280;51710;38.732;-121.358;2023-04-04T00:17:18;101257.44;;;15.24;30.66
64967;BME280;51710;38.732;-121.358;2023-04-04T00:19:45;101250.25;;;15.25;31.52
64967;BME280;51710;38.732;-121.358;2023-04-04T00:22:11;101253.72;;;15.33;32.21
64967;BME280;51710;38.732;-121.358;2023-04-04T00:24:40;101249.50;;;15.39;31.05
64967;BME280;51710;38.732;-121.358;2023-04-04T00:27:07;101251.72;;;15.35;32.23
64967;BME280;51710;38.732;-121.358;2023-04-04T00:29:33;101252.38;;;15.37;31.82
64967;BME280;51710;38.732;-121.358;2023-04-04T00:31:59;101248.34;;;15.41;31.47
64967;BME280;51710;38.732;-121.358;2023-04-04T00:34:27;101251.03;;;15.41;29.92
64967;BME280;51710;38.732;-121.358;2023-04-04T00:36:54;101245.38;;;15.28;29.60
64967;BME280;51710;38.732;-121.358;2023-04-04T00:39:20;101247.91;;;15.22;29.83
64967;BME280;51710;38.732;-121.358;2023-04-04T00:41:48;101244.41;;;15.13;30.16
64967;BME280;51710;38.732;-121.358;2023-04-04T00:44:15;101243.75;;;15.11;29.45
64967;BME280;51710;38.732;-121.358;2023-04-04T00:46:41;101252.13;;;15.08;29.68
64967;BME280;51710;38.732;-121.358;2023-04-04T00:49:07;101251.66;;;15.05;30.78
64967;BME280;51710;38.732;-121.358;2023-04-04T00:51:34;101240.09;;;15.04;32.25
64967;BME280;51710;38.732;-121.358;2023-04-04T00:54:00;101239.78;;;14.99;32.00
64967;BME280;51710;38.732;-121.358;2023-04-04T00:56:27;101241.13;;;14.95;33.12
64967;BME280;51710;38.732;-121.358;2023-04-04T00:58:55;101244.50;;;14.89;31.51
64967;BME280;51710;38.732;-121.358;2023-04-04T01:01:21;101244.03;;;14.78;30.30
64967;BME280;51710;38.732;-121.358;2023-04-04T01:03:51;101255.63;;;14.62;31.69
64967;BME280;51710;38.732;-121.358;2023-04-04T01:06:17;101261.69;;;14.48;32.70
64967;BME280;51710;38.732;-121.358;2023-04-04T01:08:44;101261.34;;;14.35;33.76
64967;BME280;51710;38.732;-121.358;2023-04-04T01:11:11;101267.19;;;14.22;33.34
64967;BME280;51710;38.732;-121.358;2023-04-04T01:13:38;101264.84;;;14.11;33.66
64967;BME280;51710;38.732;-121.358;2023-04-04T01:16:05;101270.69;;;13.99;34.54
64967;BME280;51710;38.732;-121.358;2023-04-04T01:18:33;101271.66;;;13.90;35.08
64967;BME280;51710;38.732;-121.358;2023-04-04T01:21:06;101268.63;;;13.85;34.50
64967;BME280;51710;38.732;-121.358;2023-04-04T01:24:00;101269.66;;;13.84;35.94
64967;BME280;51710;38.732;-121.358;2023-04-04T01:26:27;101271.66;;;13.82;35.64
64967;BME280;51710;38.732;-121.358;2023-04-04T01:28:57;101276.50;;;13.70;36.39
64967;BME280;51710;38.732;-121.358;2023-04-04T01:39:23;101278.38;;;13.36;37.11
64967;BME280;51710;38.732;-121.358;2023-04-04T01:41:53;101285.38;;;13.29;37.15
64967;BME280;51710;38.732;-121.358;2023-04-04T01:44:21;101286.19;;;13.21;37.14
64967;BME280;51710;38.732;-121.358;2023-04-04T01:46:55;101288.81;;;13.13;37.61
64967;BME280;51710;38.732;-121.358;2023-04-04T01:49:21;101289.47;;;13.07;36.93
64967;BME280;51710;38.732;-121.358;2023-04-04T01:51:52;101302.16;;;13.05;37.41
64967;BME280;51710;38.732;-121.358;2023-04-04T01:54:19;101295.72;;;12.98;37.07
64967;BME280;51710;38.732;-121.358;2023-04-04T01:56:45;101305.56;;;12.98;36.52
64967;BME280;51710;38.732;-121.358;2023-04-04T01:59:12;101305.06;;;12.94;37.41
64967;BME280;51710;38.732;-121.358;2023-04-04T02:01:38;101309.88;;;12.91;36.88
64967;BME280;51710;38.732;-121.358;2023-04-04T02:04:06;101296.84;;;12.88;36.64
64967;BME280;51710;38.732;-121.358;2023-04-04T02:06:35;101303.16;;;12.87;36.66
64967;BME280;51710;38.732;-121.358;2023-04-04T02:09:02;101317.00;;;12.82;37.37
64967;BME280;51710;38.732;-121.358;2023-04-04T02:11:28;101314.50;;;12.81;37.29
64967;BME280;51710;38.732;-121.358;2023-04-04T02:13:55;101308.94;;;12.74;38.28
64967;BME280;51710;38.732;-121.358;2023-04-04T02:16:21;101311.25;;;12.69;37.60
64967;BME280;51710;38.732;-121.358;2023-04-04T02:18:48;101303.00;;;12.63;37.91
64967;BME280;51710;38.732;-121.358;2023-04-04T02:21:14;101311.13;;;12.53;38.96
64967;BME280;51710;38.732;-121.358;2023-04-04T02:23:40;101306.72;;;12.44;39.17
64967;BME280;51710;38.732;-121.358;2023-04-04T02:26:07;101309.00;;;12.39;39.69
64967;BME280;51710;38.732;-121.358;2023-04-04T02:28:33;101313.28;;;12.32;39.36
64967;BME280;51710;38.732;-121.358;2023-04-04T02:31:00;101314.56;;;12.28;39.52
64967;BME280;51710;38.732;-121.358;2023-04-04T02:33:27;101310.53;;;12.24;39.77
64967;BME280;51710;38.732;-121.358;2023-04-04T02:35:58;101313.66;;;12.19;40.20
64967;BME280;51710;38.732;-121.358;2023-04-04T02:38:24;101318.31;;;12.17;40.14
64967;BME280;51710;38.732;-121.358;2023-04-04T02:40:51;101322.44;;;12.12;40.39
64967;BME280;51710;38.732;-121.358;2023-04-04T02:43:17;101326.69;;;12.05;40.33
64967;BME280;51710;38.732;-121.358;2023-04-04T02:45:44;101322.69;;;12.01;40.10
64967;BME280;51710;38.732;-121.358;2023-04-04T02:48:10;101325.94;;;11.95;40.28
64967;BME280;51710;38.732;-121.358;2023-04-04T02:50:36;101329.06;;;11.90;40.81
64967;BME280;51710;38.732;-121.358;2023-04-04T02:53:03;101324.31;;;11.84;40.68
64967;BME280;51710;38.732;-121.358;2023-04-04T02:55:29;101328.28;;;11.80;41.36
64967;BME280;51710;38.732;-121.358;2023-04-04T02:57:56;101329.44;;;11.78;41.55
64967;BME280;51710;38.732;-121.358;2023-04-04T03:00:23;101335.34;;;11.72;41.06
64967;BME280;51710;38.732;-121.358;2023-04-04T03:02:55;101343.81;;;11.67;40.92
64967;BME280;51710;38.732;-121.358;2023-04-04T03:05:25;101338.06;;;11.62;41.56
64967;BME280;51710;38.732;-121.358;2023-04-04T03:07:53;101340.19;;;11.59;41.03
64967;BME280;51710;38.732;-121.358;2023-04-04T03:10:21;101337.94;;;11.54;41.96
64967;BME280;51710;38.732;-121.358;2023-04-04T03:12:48;101344.44;;;11.52;41.84
64967;BME280;51710;38.732;-121.358;2023-04-04T03:15:14;101346.00;;;11.45;41.51
64967;BME280;51710;38.732;-121.358;2023-04-04T03:17:40;101342.78;;;11.41;41.67
64967;BME280;51710;38.732;-121.358;2023-04-04T03:20:07;101341.25;;;11.38;41.78
64967;BME280;51710;38.732;-121.358;2023-04-04T03:22:34;101340.56;;;11.37;41.36
64967;BME280;51710;38.732;-121.358;2023-04-04T03:25:00;101344.22;;;11.35;41.48
64967;BME280;51710;38.732;-121.358;2023-04-04T03:27:26;101346.47;;;11.30;41.71
64967;BME280;51710;38.732;-121.358;2023-04-04T03:29:52;101348.75;;;11.25;41.42
64967;BME280;51710;38.732;-121.358;2023-04-04T03:32:19;101357.72;;;11.24;41.94
64967;BME280;51710;38.732;-121.358;2023-04-04T03:34:45;101359.00;;;11.20;41.82
64967;BME280;51710;38.732;-121.358;2023-04-04T03:37:12;101366.63;;;11.15;41.57
64967;BME280;51710;38.732;-121.358;2023-04-04T03:39:38;101358.22;;;11.10;41.60
64967;BME280;51710;38.732;-121.358;2023-04-04T03:42:04;101366.78;;;11.04;41.80
64967;BME280;51710;38.732;-121.358;2023-04-04T03:44:30;101374.38;;;10.99;41.99
64967;BME280;51710;38.732;-121.358;2023-04-04T03:46:57;101387.84;;;10.98;42.39
64967;BME280;51710;38.732;-121.358;2023-04-04T03:49:23;101383.91;;;10.92;43.16
64967;BME280;51710;38.732;-121.358;2023-04-04T03:51:49;101390.25;;;10.82;42.68
64967;BME280;51710;38.732;-121.358;2023-04-04T03:54:15;101397.66;;;10.69;42.64
64967;BME280;51710;38.732;-121.358;2023-04-04T03:56:42;101397.41;;;10.62;43.41
64967;BME280;51710;38.732;-121.358;2023-04-04T03:59:08;101400.50;;;10.58;43.29
64967;BME280;51710;38.732;-121.358;2023-04-04T04:01:35;101411.28;;;10.47;43.49
64967;BME280;51710;38.732;-121.358;2023-04-04T04:04:01;101423.19;;;10.33;45.18
64967;BME280;51710;38.732;-121.358;2023-04-04T04:06:27;101423.44;;;10.11;46.12
64967;BME280;51710;38.732;-121.358;2023-04-04T04:08:53;101425.31;;;9.90;47.14
64967;BME280;51710;38.732;-121.358;2023-04-04T04:11:21;101435.59;;;9.74;47.79
64967;BME280;51710;38.732;-121.358;2023-04-04T04:13:47;101430.50;;;9.61;48.20
64967;BME280;51710;38.732;-121.358;2023-04-04T04:16:14;101443.78;;;9.52;49.01
64967;BME280;51710;38.732;-121.358;2023-04-04T04:18:40;101433.22;;;9.41;49.05
64967;BME280;51710;38.732;-121.358;2023-04-04T04:21:07;101447.03;;;9.35;48.94
64967;BME280;51710;38.732;-121.358;2023-04-04T04:23:34;101442.13;;;9.30;49.05
64967;BME280;51710;38.732;-121.358;2023-04-04T04:26:00;101446.56;;;9.30;49.34
64967;BME280;51710;38.732;-121.358;2023-04-04T04:28:26;101452.88;;;9.29;49.15
64967;BME280;51710;38.732;-121.358;2023-04-04T04:30:52;101448.28;;;9.31;49.69
64967;BME280;51710;38.732;-121.358;2023-04-04T04:33:19;101449.56;;;9.36;49.86
64967;BME280;51710;38.732;-121.358;2023-04-04T04:35:45;101453.91;;;9.37;50.23
64967;BME280;51710;38.732;-121.358;2023-04-04T04:38:11;101458.22;;;9.38;50.05
64967;BME280;51710;38.732;-121.358;2023-04-04T04:40:37;101462.72;;;9.38;50.26
64967;BME280;51710;38.732;-121.358;2023-04-04T04:43:04;101465.63;;;9.35;50.36
64967;BME280;51710;38.732;-121.358;2023-04-04T04:45:30;101470.25;;;9.33;50.64
64967;BME280;51710;38.732;-121.358;2023-04-04T04:47:57;101472.44;;;9.28;50.42
64967;BME280;51710;38.732;-121.358;2023-04-04T04:50:23;101475.63;;;9.22;50.70
64967;BME280;51710;38.732;-121.358;2023-04-04T04:52:50;101474.47;;;9.15;51.23
64967;BME280;51710;38.732;-121.358;2023-04-04T04:55:17;101481.72;;;9.13;51.39
64967;BME280;51710;38.732;-121.358;2023-04-04T04:57:46;101486.84;;;9.04;51.39
64967;BME280;51710;38.732;-121.358;2023-04-04T05:00:13;101496.59;;;8.83;51.76
64967;BME280;51710;38.732;-121.358;2023-04-04T05:02:39;101509.91;;;8.72;53.04
64967;BME280;51710;38.732;-121.358;2023-04-04T05:05:06;101507.88;;;8.65;53.74
64967;BME280;51710;38.732;-121.358;2023-04-04T05:07:32;101513.56;;;8.60;53.84
64967;BME280;51710;38.732;-121.358;2023-04-04T05:09:58;101513.81;;;8.57;53.94
64967;BME280;51710;38.732;-121.358;2023-04-04T05:12:24;101512.25;;;8.55;53.93
64967;BME280;51710;38.732;-121.358;2023-04-04T05:14:51;101515.38;;;8.60;53.82
64967;BME280;51710;38.732;-121.358;2023-04-04T05:17:18;101518.75;;;8.62;54.02
64967;BME280;51710;38.732;-121.358;2023-04-04T05:19:44;101519.34;;;8.65;53.81
64967;BME280;51710;38.732;-121.358;2023-04-04T05:22:11;101512.09;;;8.67;53.70
64967;BME280;51710;38.732;-121.358;2023-04-04T05:24:37;101520.91;;;8.68;53.99
64967;BME280;51710;38.732;-121.358;2023-04-04T05:27:03;101519.94;;;8.69;54.11
64967;BME280;51710;38.732;-121.358;2023-04-04T05:29:29;101517.28;;;8.69;54.29
64967;BME280;51710;38.732;-121.358;2023-04-04T05:31:56;101521.75;;;8.68;54.54
64967;BME280;51710;38.732;-121.358;2023-04-04T05:34:22;101523.56;;;8.68;54.90
64967;BME280;51710;38.732;-121.358;2023-04-04T05:36:48;101521.03;;;8.66;54.46
64967;BME280;51710;38.732;-121.358;2023-04-04T05:39:14;101525.38;;;8.67;54.83
64967;BME280;51710;38.732;-121.358;2023-04-04T05:41:40;101530.94;;;8.64;54.84
64967;BME280;51710;38.732;-121.358;2023-04-04T05:44:07;101524.06;;;8.62;55.66
64967;BME280;51710;38.732;-121.358;2023-04-04T05:46:33;101517.91;;;8.61;55.98
64967;BME280;51710;38.732;-121.358;2023-04-04T05:48:59;101519.13;;;8.57;55.91
64967;BME280;51710;38.732;-121.358;2023-04-04T05:51:26;101514.78;;;8.56;55.86
64967;BME280;51710;38.732;-121.358;2023-04-04T05:53:52;101520.94;;;8.57;55.86
64967;BME280;51710;38.732;-121.358;2023-04-04T05:56:18;101528.31;;;8.53;56.80
64967;BME280;51710;38.732;-121.358;2023-04-04T05:58:44;101530.28;;;8.40;56.77
64967;BME280;51710;38.732;-121.358;2023-04-04T06:01:11;101538.59;;;8.36;57.60
64967;BME280;51710;38.732;-121.358;2023-04-04T06:03:37;101530.88;;;8.33;57.74
64967;BME280;51710;38.732;-121.358;2023-04-04T06:06:04;101535.59;;;8.29;58.07
64967;BME280;51710;38.732;-121.358;2023-04-04T06:08:30;101534.13;;;8.25;58.18
64967;BME280;51710;38.732;-121.358;2023-04-04T06:10:57;101540.88;;;8.18;58.98
64967;BME280;51710;38.732;-121.358;2023-04-04T06:13:23;101534.34;;;8.11;59.09
64967;BME280;51710;38.732;-121.358;2023-04-04T06:15:49;101534.88;;;8.05;59.28
64967;BME280;51710;38.732;-121.358;2023-04-04T06:18:15;101529.09;;;8.00;59.44
64967;BME280;51710;38.732;-121.358;2023-04-04T06:20:42;101536.66;;;7.93;59.96
64967;BME280;51710;38.732;-121.358;2023-04-04T06:23:08;101541.34;;;7.90;60.02
64967;BME280;51710;38.732;-121.358;2023-04-04T06:25:38;101543.78;;;7.93;59.77
64967;BME280;51710;38.732;-121.358;2023-04-04T06:28:04;101550.75;;;7.94;59.75
64967;BME280;51710;38.732;-121.358;2023-04-04T06:30:34;101545.22;;;7.97;59.78
64967;BME280;51710;38.732;-121.358;2023-04-04T06:33:03;101550.19;;;8.02;58.56
64967;BME280;51710;38.732;-121.358;2023-04-04T06:35:29;101547.75;;;8.10;57.66
64967;BME280;51710;38.732;-121.358;2023-04-04T06:37:55;101552.59;;;8.16;57.33
64967;BME280;51710;38.732;-121.358;2023-04-04T06:40:22;101552.47;;;8.17;56.88
64967;BME280;51710;38.732;-121.358;2023-04-04T06:42:49;101554.13;;;8.18;56.82
64967;BME280;51710;38.732;-121.358;2023-04-04T06:45:16;101554.72;;;8.22;55.89
64967;BME280;51710;38.732;-121.358;2023-04-04T06:47:43;101558.75;;;8.27;54.92
64967;BME280;51710;38.732;-121.358;2023-04-04T06:50:10;101559.34;;;8.31;54.69
64967;BME280;51710;38.732;-121.358;2023-04-04T06:52:36;101558.97;;;8.35;54.34
64967;BME280;51710;38.732;-121.358;2023-04-04T06:55:03;101563.31;;;8.36;53.81
64967;BME280;51710;38.732;-121.358;2023-04-04T06:57:30;101557.28;;;8.34;53.31
64967;BME280;51710;38.732;-121.358;2023-04-04T06:59:57;101564.28;;;8.35;53.36
64967;BME280;51710;38.732;-121.358;2023-04-04T07:02:23;101566.22;;;8.33;53.87
64967;BME280;51710;38.732;-121.358;2023-04-04T07:04:50;101566.44;;;8.30;53.70
64967;BME280;51710;38.732;-121.358;2023-04-04T07:07:16;101564.78;;;8.29;53.65
64967;BME280;51710;38.732;-121.358;2023-04-04T07:09:42;101581.13;;;8.23;54.15
64967;BME280;51710;38.732;-121.358;2023-04-04T07:12:09;101576.09;;;8.20;54.04
64967;BME280;51710;38.732;-121.358;2023-04-04T07:14:35;101569.31;;;8.16;54.34
64967;BME280;51710;38.732;-121.358;2023-04-04T07:17:01;101570.56;;;8.12;54.44
64967;BME280;51710;38.732;-121.358;2023-04-04T07:19:27;101577.91;;;8.09;54.55
64967;BME280;51710;38.732;-121.358;2023-04-04T07:21:54;101573.91;;;8.03;54.59
64967;BME280;51710;38.732;-121.358;2023-04-04T07:24:21;101575.84;;;8.01;54.77
64967;BME280;51710;38.732;-121.358;2023-04-04T07:26:47;101582.13;;;8.00;54.87
64967;BME280;51710;38.732;-121.358;2023-04-04T07:29:14;101577.75;;;7.99;55.18
64967;BME280;51710;38.732;-121.358;2023-04-04T07:31:40;101574.50;;;7.95;55.15
64967;BME280;51710;38.732;-121.358;2023-04-04T07:34:06;101577.28;;;7.94;55.13
64967;BME280;51710;38.732;-121.358;2023-04-04T07:36:32;101581.13;;;7.90;55.53
64967;BME280;51710;38.732;-121.358;2023-04-04T07:38:59;101580.63;;;7.85;56.08
64967;BME280;51710;38.732;-121.358;2023-04-04T07:41:25;101582.94;;;7.78;56.72
64967;BME280;51710;38.732;-121.358;2023-04-04T07:43:51;101578.81;;;7.74;56.26
64967;BME280;51710;38.732;-121.358;2023-04-04T07:46:18;101587.88;;;7.72;56.40
64967;BME280;51710;38.732;-121.358;2023-04-04T07:48:45;101587.13;;;7.70;56.97
64967;BME280;51710;38.732;-121.358;2023-04-04T07:51:11;101585.66;;;7.66;57.31
64967;BME280;51710;38.732;-121.358;2023-04-04T07:53:37;101594.59;;;7.65;56.51
64967;BME280;51710;38.732;-121.358;2023-04-04T07:56:03;101590.25;;;7.64;57.02
64967;BME280;51710;38.732;-121.358;2023-04-04T07:58:35;101591.47;;;7.60;57.45
64967;BME280;51710;38.732;-121.358;2023-04-04T08:01:02;101588.91;;;7.58;57.17
64967;BME280;51710;38.732;-121.358;2023-04-04T08:03:29;101596.97;;;7.57;57.06
64967;BME280;51710;38.732;-121.358;2023-04-04T08:05:55;101603.97;;;7.58;57.11
64967;BME280;51710;38.732;-121.358;2023-04-04T08:08:21;101600.59;;;7.56;56.96
64967;BME280;51710;38.732;-121.358;2023-04-04T08:10:48;101595.53;;;7.53;56.68
64967;BME280;51710;38.732;-121.358;2023-04-04T08:13:14;101603.25;;;7.56;56.65
64967;BME280;51710;38.732;-121.358;2023-04-04T08:15:40;101600.59;;;7.56;56.55
64967;BME280;51710;38.732;-121.358;2023-04-04T08:18:07;101600.59;;;7.56;56.90
64967;BME280;51710;38.732;-121.358;2023-04-04T08:20:33;101603.13;;;7.57;56.18
64967;BME280;51710;38.732;-121.358;2023-04-04T08:23:00;101599.84;;;7.54;56.83
64967;BME280;51710;38.732;-121.358;2023-04-04T08:25:27;101600.94;;;7.51;56.95
64967;BME280;51710;38.732;-121.358;2023-04-04T08:27:54;101593.63;;;7.55;56.37
64967;BME280;51710;38.732;-121.358;2023-04-04T08:30:20;101600.03;;;7.63;55.39
64967;BME280;51710;38.732;-121.358;2023-04-04T08:32:46;101601.69;;;7.64;55.92
64967;BME280;51710;38.732;-121.358;2023-04-04T08:35:13;101608.78;;;7.64;55.95
64967;BME280;51710;38.732;-121.358;2023-04-04T08:37:46;101602.66;;;7.63;55.45
64967;BME280;51710;38.732;-121.358;2023-04-04T08:40:12;101610.72;;;7.62;56.40
64967;BME280;51710;38.732;-121.358;2023-04-04T08:42:40;101616.50;;;7.56;56.37
64967;BME280;51710;38.732;-121.358;2023-04-04T08:45:11;101616.72;;;7.53;55.81
64967;BME280;51710;38.732;-121.358;2023-04-04T08:47:38;101614.28;;;7.50;56.10
64967;BME280;51710;38.732;-121.358;2023-04-04T08:50:07;101619.94;;;7.45;56.97
64967;BME280;51710;38.732;-121.358;2023-04-04T08:52:37;101620.19;;;7.42;56.82
64967;BME280;51710;38.732;-121.358;2023-04-04T08:55:05;101616.19;;;7.37;56.97
64967;BME280;51710;38.732;-121.358;2023-04-04T08:57:31;101623.75;;;7.30;57.49
64967;BME280;51710;38.732;-121.358;2023-04-04T08:59:58;101621.53;;;7.24;58.01
64967;BME280;51710;38.732;-121.358;2023-04-04T09:02:41;101625.38;;;7.20;58.10
64967;BME280;51710;38.732;-121.358;2023-04-04T09:05:12;101632.00;;;7.15;57.89
64967;BME280;51710;38.732;-121.358;2023-04-04T09:07:40;101623.75;;;7.07;58.00
64967;BME280;51710;38.732;-121.358;2023-04-04T09:10:08;101621.66;;;6.99;58.82
64967;BME280;51710;38.732;-121.358;2023-04-04T09:12:42;101625.63;;;6.94;59.28
64967;BME280;51710;38.732;-121.358;2023-04-04T09:15:12;101631.34;;;6.88;59.41
64967;BME280;51710;38.732;-121.358;2023-04-04T09:17:39;101621.91;;;6.83;59.53
64967;BME280;51710;38.732;-121.358;2023-04-04T09:20:39;101627.56;;;6.79;59.43
64967;BME280;51710;38.732;-121.358;2023-04-04T09:23:24;101625.03;;;6.77;59.52
64967;BME280;51710;38.732;-121.358;2023-04-04T09:25:52;101626.72;;;6.78;59.38
64967;BME280;51710;38.732;-121.358;2023-04-04T09:28:20;101628.53;;;6.78;60.04
64967;BME280;51710;38.732;-121.358;2023-04-04T09:30:48;101628.53;;;6.78;59.44
64967;BME280;51710;38.732;-121.358;2023-04-04T09:33:15;101629.06;;;6.70;59.87
64967;BME280;51710;38.732;-121.358;2023-04-04T09:35:49;101634.41;;;6.58;59.53
64967;BME280;51710;38.732;-121.358;2023-04-04T09:38:26;101633.47;;;6.46;59.99
64967;BME280;51710;38.732;-121.358;2023-04-04T09:40:54;101636.66;;;6.39;60.29
64967;BME280;51710;38.732;-121.358;2023-04-04T09:43:22;101633.50;;;6.34;60.33
64967;BME280;51710;38.732;-121.358;2023-04-04T09:45:50;101631.38;;;6.26;60.48
64967;BME280;51710;38.732;-121.358;2023-04-04T09:48:27;101626.94;;;6.14;61.02
64967;BME280;51710;38.732;-121.358;2023-04-04T09:50:56;101633.31;;;6.12;60.98
64967;BME280;51710;38.732;-121.358;2023-04-04T09:53:23;101630.75;;;6.10;61.13
64967;BME280;51710;38.732;-121.358;2023-04-04T09:55:51;101629.06;;;6.09;61.26
64967;BME280;51710;38.732;-121.358;2023-04-04T09:58:23;101626.31;;;6.11;61.02
64967;BME280;51710;38.732;-121.358;2023-04-04T10:00:54;101630.44;;;6.15;60.97
64967;BME280;51710;38.732;-121.358;2023-04-04T10:03:22;101623.38;;;6.15;61.39
64967;BME280;51710;38.732;-121.358;2023-04-04T10:06:06;101617.34;;;6.13;61.82
64967;BME280;51710;38.732;-121.358;2023-04-04T10:08:38;101628.03;;;6.12;61.44
64967;BME280;51710;38.732;-121.358;2023-04-04T10:11:05;101629.06;;;6.09;61.43
64967;BME280;51710;38.732;-121.358;2023-04-04T10:13:35;101624.00;;;6.06;62.03
64967;BME280;51710;38.732;-121.358;2023-04-04T10:16:05;101621.75;;;6.00;62.21
64967;BME280;51710;38.732;-121.358;2023-04-04T10:18:33;101624.63;;;5.97;61.95
64967;BME280;51710;38.732;-121.358;2023-04-04T10:21:04;101637.09;;;5.95;62.77
64967;BME280;51710;38.732;-121.358;2023-04-04T10:23:31;101635.59;;;5.91;62.79
64967;BME280;51710;38.732;-121.358;2023-04-04T10:25:59;101629.59;;;5.89;62.76
64967;BME280;51710;38.732;-121.358;2023-04-04T10:28:26;101634.16;;;5.87;63.00
64967;BME280;51710;38.732;-121.358;2023-04-04T10:31:21;101630.75;;;5.85;63.29
64967;BME280;51710;38.732;-121.358;2023-04-04T10:36:48;101631.66;;;5.59;62.77
64967;BME280;51710;38.732;-121.358;2023-04-04T10:39:24;101633.41;;;5.46;63.26
64967;BME280;51710;38.732;-121.358;2023-04-04T10:41:52;101632.09;;;5.39;63.33
64967;BME280;51710;38.732;-121.358;2023-04-04T10:44:32;101634.44;;;5.31;63.70
64967;BME280;51710;38.732;-121.358;2023-04-04T10:47:24;101635.28;;;5.31;63.88
64967;BME280;51710;38.732;-121.358;2023-04-04T10:49:51;101630.81;;;5.32;64.34
64967;BME280;51710;38.732;-121.358;2023-04-04T10:52:19;101630.00;;;5.31;64.35
64967;BME280;51710;38.732;-121.358;2023-04-04T10:54:51;101636.31;;;5.29;64.26
64967;BME280;51710;38.732;-121.358;2023-04-04T10:57:19;101638.41;;;5.24;64.49
64967;BME280;51710;38.732;-121.358;2023-04-04T11:00:07;101634.28;;;5.20;64.82
64967;BME280;51710;38.732;-121.358;2023-04-04T11:02:54;101637.53;;;5.11;64.57
64967;BME280;51710;38.732;-121.358;2023-04-04T11:05:33;101636.41;;;5.01;64.95
64967;BME280;51710;38.732;-121.358;2023-04-04T11:08:09;101634.19;;;4.95;64.92
64967;BME280;51710;38.732;-121.358;2023-04-04T11:10:41;101634.31;;;4.93;65.12
64967;BME280;51710;38.732;-121.358;2023-04-04T11:13:15;101627.78;;;4.85;65.37
64967;BME280;51710;38.732;-121.358;2023-04-04T11:16:12;101630.94;;;4.77;65.40
64967;BME280;51710;38.732;-121.358;2023-04-04T11:21:10;101639.88;;;4.75;65.73
64967;BME280;51710;38.732;-121.358;2023-04-04T11:26:34;101640.75;;;4.61;66.25
64967;BME280;51710;38.732;-121.358;2023-04-04T11:29:02;101641.25;;;4.53;66.42
64967;BME280;51710;38.732;-121.358;2023-04-04T11:34:07;101651.72;;;4.41;66.95
64967;BME280;51710;38.732;-121.358;2023-04-04T11:39:07;101654.81;;;4.33;67.05
64967;BME280;51710;38.732;-121.358;2023-04-04T11:41:54;101653.88;;;4.34;67.61
64967;BME280;51710;38.732;-121.358;2023-04-04T11:44:24;101660.66;;;4.38;67.41
64967;BME280;51710;38.732;-121.358;2023-04-04T11:47:10;101664.25;;;4.37;67.60
64967;BME280;51710;38.732;-121.358;2023-04-04T11:49:42;101656.16;;;4.40;67.66
64967;BME280;51710;38.732;-121.358;2023-04-04T11:52:11;101659.53;;;4.42;67.74
64967;BME280;51710;38.732;-121.358;2023-04-04T11:54:39;101659.69;;;4.39;67.81
64967;BME280;51710;38.732;-121.358;2023-04-04T11:57:19;101665.38;;;4.33;68.21
64967;BME280;51710;38.732;-121.358;2023-04-04T11:59:47;101673.28;;;4.33;68.03
64967;BME280;51710;38.732;-121.358;2023-04-04T12:02:23;101670.66;;;4.33;68.13
64967;BME280;51710;38.732;-121.358;2023-04-04T12:04:52;101672.53;;;4.31;67.55
64967;BME280;51710;38.732;-121.358;2023-04-04T12:07:18;101675.25;;;4.30;68.01
64967;BME280;51710;38.732;-121.358;2023-04-04T12:09:45;101670.44;;;4.22;68.12
64967;BME280;51710;38.732;-121.358;2023-04-04T12:12:13;101675.81;;;4.21;67.99
64967;BME280;51710;38.732;-121.358;2023-04-04T12:14:43;101674.13;;;4.20;68.32
64967;BME280;51710;38.732;-121.358;2023-04-04T12:17:10;101680.41;;;4.17;68.35
64967;BME280;51710;38.732;-121.358;2023-04-04T12:19:37;101691.16;;;4.14;68.40
64967;BME280;51710;38.732;-121.358;2023-04-04T12:22:04;101680.81;;;4.11;68.63
64967;BME280;51710;38.732;-121.358;2023-04-04T12:24:33;101695.09;;;4.07;69.32
64967;BME280;51710;38.732;-121.358;2023-04-04T12:27:00;101691.69;;;4.05;69.07
64967;BME280;51710;38.732;-121.358;2023-04-04T12:29:28;101696.97;;;4.05;69.58
64967;BME280;51710;38.732;-121.358;2023-04-04T12:32:01;101687.38;;;4.04;69.33
64967;BME280;51710;38.732;-121.358;2023-04-04T12:34:30;101690.19;;;4.01;68.99
64967;BME280;51710;38.732;-121.358;2023-04-04T12:36:57;101691.38;;;3.96;69.83
64967;BME280;51710;38.732;-121.358;2023-04-04T12:39:28;101690.66;;;3.94;69.85
64967;BME280;51710;38.732;-121.358;2023-04-04T12:41:59;101691.69;;;3.91;69.76
64967;BME280;51710;38.732;-121.358;2023-04-04T12:44:31;101693.66;;;3.88;69.96
64967;BME280;51710;38.732;-121.358;2023-04-04T12:47:00;101704.38;;;3.85;70.04
64967;BME280;51710;38.732;-121.358;2023-04-04T12:49:45;101694.28;;;3.77;70.50
64967;BME280;51710;38.732;-121.358;2023-04-04T12:52:28;101697.78;;;3.78;70.23
64967;BME280;51710;38.732;-121.358;2023-04-04T12:55:04;101690.88;;;3.75;70.03